createdAt,value
2018-05-04T00:00:40.471Z,2.40
2018-05-04T00:03:08.732Z,2.40
2018-05-04T00:05:37.995Z,2.60
2018-05-04T00:08:06.457Z,2.57
2018-05-04T00:10:34.743Z,2.87
2018-05-04T00:13:03.111Z,2.20
2018-05-04T00:15:31.711Z,2.67
2018-05-04T00:18:00.179Z,2.30
2018-05-04T00:20:29.475Z,2.20
2018-05-04T00:22:58.058Z,2.40
2018-05-04T00:25:26.657Z,2.70
2018-05-04T00:27:55.851Z,2.80
2018-05-04T00:30:25.152Z,2.77
2018-05-04T00:32:54.577Z,2.70
2018-05-04T00:35:22.999Z,2.50
2018-05-04T00:37:51.582Z,2.70
2018-05-04T00:40:20.018Z,2.50
2018-05-04T00:42:48.963Z,2.47
2018-05-04T00:45:18.729Z,2.60
2018-05-04T00:47:47.370Z,2.30
2018-05-04T00:50:15.563Z,2.57
2018-05-04T00:52:44.668Z,2.40
2018-05-04T00:55:13.117Z,2.47
2018-05-04T00:57:41.505Z,2.63
2018-05-04T01:00:09.693Z,3.03
2018-05-04T01:02:37.952Z,2.50
2018-05-04T01:05:06.525Z,2.40
2018-05-04T01:07:36.449Z,2.37
2018-05-04T01:10:05.683Z,2.40
2018-05-04T01:12:34.873Z,2.40
2018-05-04T01:15:03.253Z,2.53
2018-05-04T01:17:32.112Z,2.70
2018-05-04T01:20:00.489Z,2.50
2018-05-04T01:22:28.769Z,2.40
2018-05-04T01:24:58.192Z,2.53
2018-05-04T01:27:26.849Z,2.70
2018-05-04T01:29:55.262Z,2.50
2018-05-04T01:32:24.326Z,2.47
2018-05-04T01:34:52.620Z,2.70
2018-05-04T01:37:20.988Z,2.43
2018-05-04T01:39:49.181Z,2.17
2018-05-04T01:42:17.485Z,2.60
2018-05-04T01:44:46.718Z,2.77
2018-05-04T01:47:15.111Z,2.50
2018-05-04T01:49:43.330Z,2.57
2018-05-04T01:52:12.278Z,2.50
2018-05-04T01:54:40.599Z,2.77
2018-05-04T01:57:08.955Z,2.50
2018-05-04T01:59:38.016Z,2.57
2018-05-04T02:02:06.277Z,2.97
2018-05-04T02:04:34.884Z,3.67
2018-05-04T02:07:03.188Z,2.70
2018-05-04T02:09:31.424Z,2.97
2018-05-04T02:11:59.912Z,3.00
2018-05-04T02:14:28.249Z,2.73
2018-05-04T02:16:56.797Z,3.00
2018-05-04T02:19:25.864Z,2.67
2018-05-04T02:21:54.236Z,2.70
2018-05-04T02:24:22.591Z,2.87
2018-05-04T02:26:50.794Z,2.50
2018-05-04T02:29:19.272Z,2.53
2018-05-04T02:31:47.472Z,2.93
2018-05-04T02:34:15.629Z,3.03
2018-05-04T02:36:43.900Z,2.60
2018-05-04T02:39:12.450Z,2.60
2018-05-04T02:41:40.604Z,2.80
2018-05-04T02:44:08.784Z,2.80
2018-05-04T02:46:37.157Z,3.23
2018-05-04T02:49:05.590Z,2.90
2018-05-04T02:51:33.824Z,3.20
2018-05-04T02:54:03.165Z,2.87
2018-05-04T02:56:31.656Z,2.70
2018-05-04T02:59:00.840Z,2.60
2018-05-04T03:01:29.021Z,3.17
2018-05-04T03:03:57.206Z,2.70
2018-05-04T03:06:25.715Z,2.60
2018-05-04T03:08:54.681Z,2.40
2018-05-04T03:11:22.862Z,2.47
2018-05-04T03:13:52.033Z,2.90
2018-05-04T03:16:20.294Z,2.80
2018-05-04T03:18:48.364Z,3.00
2018-05-04T03:21:16.512Z,3.17
2018-05-04T03:23:44.725Z,3.00
2018-05-04T03:26:13.364Z,3.13
2018-05-04T03:28:41.909Z,2.90
2018-05-04T03:31:10.316Z,3.63
2018-05-04T03:33:38.640Z,3.07
2018-05-04T03:36:07.399Z,3.60
2018-05-04T03:38:44.064Z,3.77
2018-05-04T03:41:12.367Z,3.97
2018-05-04T03:43:40.961Z,3.77
2018-05-04T03:46:23.596Z,3.50
2018-05-04T03:48:52.099Z,3.20
2018-05-04T03:51:20.389Z,2.80
2018-05-04T03:53:48.581Z,3.20
2018-05-04T03:56:16.978Z,3.20
2018-05-04T03:59:24.893Z,3.40
2018-05-04T04:04:06.112Z,3.40
2018-05-04T04:07:21.559Z,3.00
2018-05-04T04:09:49.935Z,3.10
2018-05-04T04:12:18.218Z,3.07
2018-05-04T04:15:22.891Z,3.30
2018-05-04T04:17:52.407Z,3.07
2018-05-04T04:20:20.745Z,3.17
2018-05-04T04:23:22.920Z,2.97
2018-05-04T04:25:51.922Z,2.97
2018-05-04T04:28:20.867Z,3.00
2018-05-04T04:31:23.265Z,3.67
2018-05-04T04:33:52.793Z,3.10
2018-05-04T04:36:21.011Z,3.43
2018-05-04T04:39:23.009Z,3.53
2018-05-04T04:41:51.312Z,3.13
2018-05-04T04:44:19.755Z,3.83
2018-05-04T04:46:48.439Z,3.27
2018-05-04T04:49:16.757Z,3.30
2018-05-04T04:51:45.216Z,2.87
2018-05-04T04:54:13.521Z,3.00
2018-05-04T04:56:41.870Z,3.23
2018-05-04T04:59:10.199Z,3.50
2018-05-04T05:01:38.712Z,3.37
2018-05-04T05:04:06.958Z,3.37
2018-05-04T05:06:36.438Z,3.43
2018-05-04T05:09:05.298Z,3.00
2018-05-04T05:11:33.785Z,2.77
2018-05-04T05:14:02.115Z,2.60
2018-05-04T05:16:31.152Z,5.73
2018-05-04T05:18:59.820Z,3.20
2018-05-04T05:21:28.090Z,2.77
2018-05-04T05:23:56.420Z,2.77
2018-05-04T05:26:24.453Z,2.60
2018-05-04T05:28:53.126Z,2.73
2018-05-04T05:31:21.604Z,2.80
2018-05-04T05:33:49.954Z,2.63
2018-05-04T05:36:19.015Z,3.07
2018-05-04T05:38:47.095Z,2.73
2018-05-04T05:41:15.627Z,2.50
2018-05-04T05:43:44.165Z,2.70
2018-05-04T05:46:12.346Z,2.37
2018-05-04T05:48:40.731Z,2.60
2018-05-04T05:51:09.697Z,2.90
2018-05-04T05:53:38.699Z,2.43
2018-05-04T05:56:07.162Z,2.70
2018-05-04T05:58:35.260Z,2.70
2018-05-04T06:01:04.523Z,2.63
2018-05-04T06:03:32.677Z,2.50
2018-05-04T06:06:01.121Z,2.80
2018-05-04T06:08:30.066Z,2.90
2018-05-04T06:10:58.305Z,2.70
2018-05-04T06:13:26.524Z,2.40
2018-05-04T06:15:54.911Z,2.70
2018-05-04T06:18:23.212Z,2.60
2018-05-04T06:20:52.250Z,2.20
2018-05-04T06:23:20.716Z,2.50
2018-05-04T06:25:49.425Z,2.73
2018-05-04T06:28:17.804Z,2.77
2018-05-04T06:30:46.422Z,2.80
2018-05-04T06:33:15.696Z,2.17
2018-05-04T06:35:43.857Z,2.30
2018-05-04T06:38:12.013Z,2.60
2018-05-04T06:40:40.108Z,2.60
2018-05-04T06:43:08.375Z,3.00
2018-05-04T06:45:37.676Z,2.17
2018-05-04T06:48:06.059Z,2.30
2018-05-04T06:50:34.229Z,2.40
2018-05-04T06:53:03.028Z,2.30
2018-05-04T06:55:31.227Z,2.10
2018-05-04T06:57:59.381Z,2.20
2018-05-04T07:00:28.371Z,2.20
2018-05-04T07:02:58.426Z,1.90
2018-05-04T07:05:27.376Z,1.80
2018-05-04T07:07:55.786Z,1.93
2018-05-04T07:10:24.698Z,2.30
2018-05-04T07:12:52.925Z,2.53
2018-05-04T07:15:21.097Z,2.47
2018-05-04T07:17:49.766Z,2.13
2018-05-04T07:20:18.013Z,2.33
2018-05-04T07:22:46.128Z,2.20
2018-05-04T07:25:14.260Z,2.43
2018-05-04T07:27:42.498Z,2.33
2018-05-04T07:30:10.949Z,2.50
2018-05-04T07:32:39.018Z,2.40
2018-05-04T07:35:07.668Z,2.23
2018-05-04T07:37:36.288Z,2.20
2018-05-04T07:40:04.459Z,2.03
2018-05-04T07:42:32.830Z,2.10
2018-05-04T07:45:01.134Z,2.37
2018-05-04T07:47:29.419Z,2.07
2018-05-04T07:49:58.520Z,2.00
2018-05-04T07:52:27.612Z,2.20
2018-05-04T07:54:57.091Z,2.00
2018-05-04T07:57:25.569Z,2.03
2018-05-04T07:59:53.744Z,2.37
2018-05-04T08:02:22.211Z,1.87
2018-05-04T08:04:51.525Z,1.80
2018-05-04T08:07:20.206Z,1.83
2018-05-04T08:09:48.273Z,2.10
2018-05-04T08:12:16.917Z,2.10
2018-05-04T08:14:45.165Z,2.00
2018-05-04T08:17:13.950Z,1.77
2018-05-04T08:19:42.256Z,1.70
2018-05-04T08:22:10.586Z,1.60
2018-05-04T08:24:39.017Z,2.10
2018-05-04T08:27:08.009Z,2.00
2018-05-04T08:29:36.492Z,2.33
2018-05-04T08:32:06.779Z,1.77
2018-05-04T08:34:35.192Z,1.77
2018-05-04T08:37:03.549Z,2.20
2018-05-04T08:39:33.520Z,1.97
2018-05-04T08:42:01.663Z,2.00
2018-05-04T08:44:29.757Z,1.80
2018-05-04T08:46:58.269Z,2.10
2018-05-04T08:49:28.376Z,1.43
2018-05-04T08:51:58.653Z,1.50
2018-05-04T08:54:26.922Z,1.50
2018-05-04T08:56:55.002Z,2.00
2018-05-04T08:59:23.212Z,2.07
2018-05-04T09:01:51.407Z,2.23
2018-05-04T09:04:19.801Z,2.00
2018-05-04T09:06:49.118Z,1.77
2018-05-04T09:09:17.507Z,1.87
2018-05-04T09:11:46.888Z,1.90
2018-05-04T09:14:15.699Z,1.87
2018-05-04T09:16:43.900Z,1.60
2018-05-04T09:19:12.733Z,1.60
2018-05-04T09:21:41.488Z,1.50
2018-05-04T09:24:09.685Z,1.67
2018-05-04T09:26:38.657Z,1.90
2018-05-04T09:29:06.857Z,1.57
2018-05-04T09:31:35.022Z,1.87
2018-05-04T09:34:04.300Z,2.03
2018-05-04T09:36:32.417Z,2.00
2018-05-04T09:39:01.602Z,2.30
2018-05-04T09:41:29.776Z,1.80
2018-05-04T09:43:58.798Z,1.73
2018-05-04T09:46:27.923Z,1.50
2018-05-04T09:48:56.162Z,1.50
2018-05-04T09:51:24.278Z,1.60
2018-05-04T09:53:52.440Z,2.00
2018-05-04T09:56:22.014Z,1.70
2018-05-04T09:58:51.046Z,1.63
2018-05-04T10:01:19.237Z,1.73
2018-05-04T10:03:47.428Z,1.90
2018-05-04T10:06:16.242Z,2.30
2018-05-04T10:08:45.567Z,1.73
2018-05-04T10:11:13.945Z,2.73
2018-05-04T10:13:42.188Z,1.50
2018-05-04T10:16:10.606Z,1.87
2018-05-04T10:18:42.887Z,2.73
2018-05-04T10:21:11.234Z,1.90
2018-05-04T10:23:39.529Z,1.93
2018-05-04T10:26:08.108Z,2.23
2018-05-04T10:28:36.529Z,2.70
2018-05-04T10:31:05.400Z,2.37
2018-05-04T10:33:33.621Z,2.03
2018-05-04T10:36:02.033Z,2.40
2018-05-04T10:38:30.111Z,2.20
2018-05-04T10:40:58.275Z,2.27
2018-05-04T10:43:26.628Z,2.50
2018-05-04T10:45:54.880Z,2.17
2018-05-04T10:48:23.949Z,2.10
2018-05-04T10:50:52.095Z,2.40
2018-05-04T10:53:20.271Z,2.40
2018-05-04T10:55:48.755Z,2.20
2018-05-04T10:58:16.897Z,2.53
2018-05-04T11:00:45.406Z,2.80
2018-05-04T11:03:13.693Z,2.60
2018-05-04T11:05:42.104Z,2.40
2018-05-04T11:08:10.455Z,2.90
2018-05-04T11:10:39.358Z,2.20
2018-05-04T11:13:07.610Z,2.47
2018-05-04T11:15:36.919Z,2.40
2018-05-04T11:18:04.992Z,2.40
2018-05-04T11:20:33.846Z,2.70
2018-05-04T11:23:02.975Z,2.40
2018-05-04T11:25:31.286Z,2.27
2018-05-04T11:27:59.423Z,2.23
2018-05-04T11:30:27.754Z,2.60
2018-05-04T11:32:56.045Z,2.20
2018-05-04T11:35:24.113Z,2.27
2018-05-04T11:37:52.533Z,2.80
2018-05-04T11:40:20.601Z,2.00
2018-05-04T11:42:48.937Z,2.27
2018-05-04T11:45:17.151Z,2.23
2018-05-04T11:47:45.335Z,1.83
2018-05-04T11:50:13.883Z,2.30
2018-05-04T11:52:41.921Z,2.27
2018-05-04T11:55:10.222Z,2.40
2018-05-04T11:57:39.455Z,2.17
2018-05-04T12:00:07.572Z,2.50
2018-05-04T12:02:35.797Z,2.33
2018-05-04T12:05:03.918Z,2.40
2018-05-04T12:07:32.701Z,2.20
2018-05-04T12:10:00.853Z,2.20
2018-05-04T12:12:29.977Z,2.30
2018-05-04T12:14:58.115Z,2.63
2018-05-04T12:17:27.258Z,2.60
2018-05-04T12:19:55.434Z,2.73
2018-05-04T12:22:23.577Z,1.80
2018-05-04T12:24:51.724Z,2.50
2018-05-04T12:27:19.963Z,2.83
2018-05-04T12:29:48.927Z,2.60
2018-05-04T12:32:17.251Z,2.83
2018-05-04T12:34:46.366Z,2.60
2018-05-04T12:37:14.611Z,2.93
2018-05-04T12:39:42.712Z,2.67
2018-05-04T12:42:10.816Z,2.57
2018-05-04T12:44:39.996Z,2.63
2018-05-04T12:47:08.365Z,2.30
2018-05-04T12:49:37.306Z,2.70
2018-05-04T12:52:05.676Z,2.57
2018-05-04T12:54:33.991Z,2.70
2018-05-04T12:57:02.718Z,2.70
2018-05-04T12:59:30.897Z,2.43
2018-05-04T13:01:59.369Z,2.97
2018-05-04T13:04:27.659Z,2.30
2018-05-04T13:06:56.711Z,2.27
2018-05-04T13:09:24.857Z,2.90
2018-05-04T13:11:53.371Z,3.13
2018-05-04T13:14:21.916Z,2.63
2018-05-04T13:16:50.102Z,3.10
2018-05-04T13:19:18.245Z,3.10
2018-05-04T13:21:46.661Z,2.67
2018-05-04T13:24:14.956Z,3.30
2018-05-04T13:26:43.981Z,2.80
2018-05-04T13:29:12.228Z,2.70
2018-05-04T13:31:42.665Z,3.27
2018-05-04T13:34:11.626Z,3.07
2018-05-04T13:36:39.948Z,2.97
2018-05-04T13:39:08.071Z,2.63
2018-05-04T13:41:36.297Z,3.30
2018-05-04T13:44:04.794Z,3.40
2018-05-04T13:46:33.741Z,2.47
2018-05-04T13:49:02.993Z,3.10
2018-05-04T13:51:31.199Z,3.20
2018-05-04T13:54:00.131Z,3.57
2018-05-04T13:56:28.599Z,3.13
2018-05-04T13:58:56.807Z,3.87
2018-05-04T14:01:25.163Z,3.33
2018-05-04T14:03:53.634Z,3.30
2018-05-04T14:06:22.090Z,3.37
2018-05-04T14:08:51.141Z,3.60
2018-05-04T14:11:19.413Z,3.43
2018-05-04T14:13:47.710Z,3.10
2018-05-04T14:16:16.130Z,2.87
2018-05-04T14:18:45.177Z,3.40
2018-05-04T14:21:14.205Z,3.67
2018-05-04T14:23:43.231Z,3.17
2018-05-04T14:26:11.668Z,3.43
2018-05-04T14:28:40.518Z,3.60
2018-05-04T14:31:08.794Z,3.60
2018-05-04T14:33:37.032Z,3.20
2018-05-04T14:36:05.181Z,3.03
2018-05-04T14:38:34.015Z,3.33
2018-05-04T14:41:02.161Z,3.77
2018-05-04T14:43:31.503Z,3.47
2018-05-04T14:45:59.594Z,3.90
2018-05-04T14:48:29.105Z,4.07
2018-05-04T14:50:57.733Z,4.23
2018-05-04T14:53:27.260Z,4.00
2018-05-04T14:55:55.690Z,4.40
2018-05-04T14:58:24.698Z,4.83
2018-05-04T15:00:54.020Z,4.03
2018-05-04T15:03:22.774Z,4.40
2018-05-04T15:05:51.755Z,4.13
2018-05-04T15:08:19.822Z,3.73
2018-05-04T15:10:48.101Z,4.40
2018-05-04T15:13:16.240Z,4.30
2018-05-04T15:15:45.035Z,4.70
2018-05-04T15:18:14.932Z,4.23
2018-05-04T15:20:43.864Z,4.60
2018-05-04T15:23:12.715Z,4.50
2018-05-04T15:25:41.665Z,4.30
2018-05-04T15:28:10.666Z,4.30
2018-05-04T15:30:38.766Z,5.63
2018-05-04T15:33:07.031Z,4.70
2018-05-04T15:35:35.263Z,5.40
2018-05-04T15:38:04.292Z,5.47
2018-05-04T15:40:33.475Z,5.77
2018-05-04T15:43:02.521Z,5.40
2018-05-04T15:45:30.621Z,5.20
2018-05-04T15:48:04.173Z,4.70
2018-05-04T15:50:36.961Z,4.97
2018-05-04T15:53:05.080Z,4.70
2018-05-04T15:55:34.272Z,3.97
2018-05-04T15:58:03.351Z,6.90
2018-05-04T16:00:31.910Z,5.20
2018-05-04T16:03:00.205Z,4.87
2018-05-04T16:05:28.474Z,5.23
2018-05-04T16:07:56.954Z,4.90
2018-05-04T16:10:25.189Z,5.10
2018-05-04T16:12:53.948Z,4.80
2018-05-04T16:15:22.074Z,5.20
2018-05-04T16:17:51.264Z,4.90
2018-05-04T16:20:20.671Z,4.70
2018-05-04T16:22:49.096Z,5.40
2018-05-04T16:25:17.970Z,5.53
2018-05-04T16:27:46.218Z,5.13
2018-05-04T16:30:14.712Z,5.37
2018-05-04T16:32:42.972Z,4.70
2018-05-04T16:35:11.153Z,4.73
2018-05-04T16:37:39.533Z,4.83
2018-05-04T16:40:08.217Z,5.47
2018-05-04T16:42:37.499Z,4.57
2018-05-04T16:45:06.263Z,4.43
2018-05-04T16:47:39.733Z,5.00
2018-05-04T16:50:09.885Z,4.60
2018-05-04T16:52:38.207Z,5.03
2018-05-04T16:55:07.282Z,5.13
2018-05-04T16:57:35.842Z,4.87
2018-05-04T17:00:05.005Z,4.63
2018-05-04T17:02:33.623Z,4.40
2018-05-04T17:05:02.367Z,3.70
2018-05-04T17:07:30.988Z,4.43
2018-05-04T17:09:59.942Z,4.13
2018-05-04T17:12:28.283Z,4.27
2018-05-04T17:14:56.934Z,3.53
2018-05-04T17:17:25.145Z,3.80
2018-05-04T17:19:54.597Z,4.67
2018-05-04T17:22:24.359Z,3.60
2018-05-04T17:24:54.794Z,4.00
2018-05-04T17:27:23.552Z,3.53
2018-05-04T17:29:51.859Z,3.60
2018-05-04T17:32:20.440Z,4.13
2018-05-04T17:34:48.614Z,4.10
2018-05-04T17:37:16.899Z,3.40
2018-05-04T17:39:45.855Z,3.93
2018-05-04T17:42:14.061Z,3.63
2018-05-04T17:44:42.402Z,3.43
2018-05-04T17:47:11.916Z,3.23
2018-05-04T17:49:40.416Z,3.30
2018-05-04T17:52:08.961Z,3.63
2018-05-04T17:54:37.382Z,3.30
2018-05-04T17:57:06.386Z,3.40
2018-05-04T17:59:37.499Z,3.60
2018-05-04T18:02:06.947Z,3.60
2018-05-04T18:04:35.940Z,3.50
2018-05-04T18:07:05.332Z,3.20
2018-05-04T18:09:34.666Z,3.10
2018-05-04T18:12:03.615Z,3.30
2018-05-04T18:14:31.859Z,4.37
2018-05-04T18:17:00.831Z,3.40
2018-05-04T18:19:29.265Z,3.20
2018-05-04T18:21:58.883Z,3.13
2018-05-04T18:24:27.813Z,3.30
2018-05-04T18:26:56.702Z,3.40
2018-05-04T18:29:25.108Z,3.23
2018-05-04T18:31:53.605Z,3.23
2018-05-04T18:34:21.955Z,3.40
2018-05-04T18:36:52.741Z,4.00
2018-05-04T18:39:23.505Z,3.30
2018-05-04T18:41:54.742Z,3.90
2018-05-04T18:44:27.215Z,3.70
2018-05-04T18:46:56.965Z,3.50
2018-05-04T18:49:25.483Z,3.60
2018-05-04T18:51:54.605Z,3.00
2018-05-04T18:54:23.747Z,3.43
2018-05-04T18:56:51.922Z,2.67
2018-05-04T18:59:20.230Z,3.30
2018-05-04T19:01:49.222Z,3.10
2018-05-04T19:04:18.113Z,3.17
2018-05-04T19:06:47.069Z,3.20
2018-05-04T19:09:15.241Z,3.30
2018-05-04T19:11:43.813Z,3.00
2018-05-04T19:14:17.845Z,3.47
2018-05-04T19:16:46.473Z,3.53
2018-05-04T19:19:15.625Z,3.20
2018-05-04T19:21:45.279Z,3.20
2018-05-04T19:24:13.737Z,3.67
2018-05-04T19:26:43.065Z,3.47
2018-05-04T19:29:11.513Z,3.00
2018-05-04T19:31:40.081Z,3.40
2018-05-04T19:34:08.380Z,3.37
2018-05-04T19:36:37.270Z,3.83
2018-05-04T19:39:06.145Z,4.10
2018-05-04T19:41:35.726Z,3.10
2018-05-04T19:44:03.869Z,3.13
2018-05-04T19:46:32.983Z,3.57
2018-05-04T19:49:01.800Z,3.07
2018-05-04T19:51:30.448Z,3.40
2018-05-04T19:53:59.257Z,3.17
2018-05-04T19:56:27.497Z,3.40
2018-05-04T19:58:55.875Z,10.10
2018-05-04T20:01:25.256Z,3.63
2018-05-04T20:03:56.031Z,3.30
2018-05-04T20:06:24.588Z,3.40
2018-05-04T20:08:52.903Z,4.17
2018-05-04T20:11:21.895Z,4.07
2018-05-04T20:13:52.614Z,3.83
2018-05-04T20:16:21.063Z,3.80
2018-05-04T20:18:49.284Z,4.00
2018-05-04T20:21:18.448Z,4.83
2018-05-04T20:23:46.552Z,3.83
2018-05-04T20:26:14.874Z,3.53
2018-05-04T20:28:46.057Z,3.33
2018-05-04T20:31:15.636Z,3.60
2018-05-04T20:33:44.273Z,3.50
2018-05-04T20:36:12.520Z,3.67
2018-05-04T20:38:40.677Z,3.63
2018-05-04T20:41:08.777Z,3.73
2018-05-04T20:43:36.977Z,3.37
2018-05-04T20:46:05.210Z,3.40
2018-05-04T20:48:33.467Z,3.83
2018-05-04T20:51:04.451Z,3.57
2018-05-04T20:53:33.425Z,3.77
2018-05-04T20:56:01.776Z,3.33
2018-05-04T20:58:31.278Z,3.87
2018-05-04T21:00:59.926Z,4.00
2018-05-04T21:03:27.994Z,3.03
2018-05-04T21:05:56.468Z,3.20
2018-05-04T21:08:24.951Z,3.40
2018-05-04T21:10:53.207Z,3.50
2018-05-04T21:13:21.448Z,3.53
2018-05-04T21:15:52.363Z,3.23
2018-05-04T21:18:21.293Z,3.83
2018-05-04T21:20:49.673Z,3.80
2018-05-04T21:23:17.939Z,3.60
2018-05-04T21:25:46.199Z,3.57
2018-05-04T21:28:14.317Z,3.73
2018-05-04T21:30:43.362Z,3.43
2018-05-04T21:33:11.667Z,3.17
2018-05-04T21:35:39.796Z,3.30
2018-05-04T21:38:09.249Z,3.23
2018-05-04T21:40:37.708Z,3.47
2018-05-04T21:43:05.968Z,3.50
2018-05-04T21:45:34.142Z,3.00
2018-05-04T21:48:03.080Z,3.37
2018-05-04T21:50:31.821Z,3.27
2018-05-04T21:53:00.092Z,2.70
2018-05-04T21:55:28.466Z,3.10
2018-05-04T21:57:56.581Z,3.07
2018-05-04T22:00:24.674Z,3.53
2018-05-04T22:02:52.738Z,3.20
2018-05-04T22:05:21.001Z,2.93
2018-05-04T22:07:49.203Z,3.80
2018-05-04T22:10:17.685Z,3.30
2018-05-04T22:12:45.719Z,3.50
2018-05-04T22:15:14.110Z,3.40
2018-05-04T22:17:42.204Z,3.17
2018-05-04T22:20:10.465Z,3.27
2018-05-04T22:22:38.764Z,3.47
2018-05-04T22:25:07.711Z,3.00
2018-05-04T22:27:36.192Z,3.33
2018-05-04T22:30:04.449Z,3.40
2018-05-04T22:32:33.156Z,3.33
2018-05-04T22:35:01.403Z,3.50
2018-05-04T22:37:29.399Z,3.63
2018-05-04T22:39:59.216Z,3.23
2018-05-04T22:42:27.584Z,3.00
2018-05-04T22:44:55.716Z,3.33
2018-05-04T22:47:24.664Z,3.47
2018-05-04T22:49:53.065Z,3.50
2018-05-04T22:52:21.193Z,3.27
2018-05-04T22:54:51.380Z,3.27
2018-05-04T22:57:19.733Z,2.97
2018-05-04T22:59:48.339Z,3.07
2018-05-04T23:02:17.024Z,2.80
2018-05-04T23:04:45.734Z,2.80
2018-05-04T23:07:14.892Z,2.83
2018-05-04T23:09:43.832Z,2.60
2018-05-04T23:12:11.941Z,2.97
2018-05-04T23:14:41.688Z,2.87
2018-05-04T23:17:09.994Z,3.10
2018-05-04T23:19:38.417Z,3.00
2018-05-04T23:22:06.491Z,2.70
2018-05-04T23:24:35.440Z,2.60
2018-05-04T23:27:03.620Z,2.50
2018-05-04T23:29:31.681Z,2.53
2018-05-04T23:31:59.964Z,2.67
2018-05-04T23:34:28.318Z,2.70
2018-05-04T23:36:56.447Z,2.57
2018-05-04T23:39:24.540Z,2.60
2018-05-04T23:41:53.723Z,2.33
2018-05-04T23:44:22.031Z,2.80
2018-05-04T23:46:50.065Z,2.80
2018-05-04T23:49:18.854Z,2.50
2018-05-04T23:51:47.988Z,2.77
2018-05-04T23:54:15.994Z,3.00
2018-05-04T23:56:44.080Z,2.83
2018-05-04T23:59:12.526Z,3.00
